createdAt,value
2018-04-13T00:02:16.759Z,72.88
2018-04-13T00:04:44.762Z,72.96
2018-04-13T00:07:12.380Z,73.19
2018-04-13T00:09:39.978Z,73.10
2018-04-13T00:12:07.618Z,72.22
2018-04-13T00:14:35.187Z,73.21
2018-04-13T00:17:02.827Z,72.52
2018-04-13T00:19:30.476Z,70.56
2018-04-13T00:21:58.065Z,70.50
2018-04-13T00:24:25.644Z,71.71
2018-04-13T00:26:53.291Z,72.13
2018-04-13T00:29:20.907Z,71.43
2018-04-13T00:31:48.533Z,71.20
2018-04-13T00:34:16.268Z,70.41
2018-04-13T00:36:43.880Z,70.15
2018-04-13T00:39:11.507Z,70.81
2018-04-13T00:41:39.201Z,70.79
2018-04-13T00:44:06.816Z,70.90
2018-04-13T00:46:34.455Z,71.43
2018-04-13T00:49:02.103Z,71.29
2018-04-13T00:51:29.743Z,71.04
2018-04-13T00:53:57.319Z,71.35
2018-04-13T00:56:24.926Z,71.82
2018-04-13T00:58:52.572Z,71.87
2018-04-13T01:01:20.164Z,71.74
2018-04-13T01:03:47.796Z,72.50
2018-04-13T01:06:15.469Z,72.29
2018-04-13T01:08:43.119Z,70.95
2018-04-13T01:11:10.721Z,70.85
2018-04-13T01:13:38.374Z,71.10
2018-04-13T01:16:06.037Z,71.32
2018-04-13T01:18:33.641Z,71.76
2018-04-13T01:21:01.296Z,72.28
2018-04-13T01:23:28.920Z,72.98
2018-04-13T01:25:56.586Z,73.21
2018-04-13T01:28:24.173Z,73.52
2018-04-13T01:30:51.859Z,73.81
2018-04-13T01:33:19.484Z,74.04
2018-04-13T01:35:47.125Z,72.53
2018-04-13T01:38:14.780Z,73.19
2018-04-13T01:40:42.407Z,74.04
2018-04-13T01:43:10.026Z,74.34
2018-04-13T01:45:37.633Z,73.36
2018-04-13T01:48:05.290Z,72.52
2018-04-13T01:50:32.946Z,72.11
2018-04-13T01:53:00.557Z,71.48
2018-04-13T01:55:28.217Z,71.39
2018-04-13T01:57:55.844Z,72.31
2018-04-13T02:00:23.489Z,73.50
2018-04-13T02:02:51.115Z,74.30
2018-04-13T02:05:18.734Z,73.53
2018-04-13T02:07:46.320Z,72.73
2018-04-13T02:10:13.969Z,72.04
2018-04-13T02:12:41.564Z,72.01
2018-04-13T02:15:09.218Z,72.68
2018-04-13T02:17:36.878Z,72.32
2018-04-13T02:20:04.625Z,72.79
2018-04-13T02:22:32.220Z,72.92
2018-04-13T02:24:59.812Z,72.51
2018-04-13T02:27:27.468Z,72.92
2018-04-13T02:29:55.050Z,71.84
2018-04-13T02:32:22.718Z,71.93
2018-04-13T02:34:50.334Z,71.85
2018-04-13T02:37:17.940Z,72.72
2018-04-13T02:39:45.639Z,72.05
2018-04-13T02:42:13.371Z,72.22
2018-04-13T02:44:41.003Z,72.02
2018-04-13T02:47:08.595Z,73.04
2018-04-13T02:49:36.251Z,72.97
2018-04-13T02:52:03.951Z,73.30
2018-04-13T02:54:31.556Z,72.47
2018-04-13T02:56:59.172Z,72.35
2018-04-13T02:59:26.825Z,72.77
2018-04-13T03:01:54.422Z,72.83
2018-04-13T03:04:22.066Z,73.18
2018-04-13T03:06:49.689Z,73.55
2018-04-13T03:09:17.357Z,73.42
2018-04-13T03:11:44.942Z,73.22
2018-04-13T03:14:12.603Z,72.69
2018-04-13T03:16:40.223Z,72.89
2018-04-13T03:19:07.811Z,73.37
2018-04-13T03:21:35.474Z,74.29
2018-04-13T03:24:03.142Z,74.35
2018-04-13T03:26:30.747Z,74.49
2018-04-13T03:28:58.330Z,74.19
2018-04-13T03:31:25.991Z,74.08
2018-04-13T03:33:53.636Z,74.00
2018-04-13T03:36:21.277Z,74.36
2018-04-13T03:38:48.915Z,74.12
2018-04-13T03:41:16.558Z,74.45
2018-04-13T03:43:44.145Z,74.87
2018-04-13T03:46:11.804Z,75.06
2018-04-13T03:48:39.444Z,74.31
2018-04-13T03:51:07.034Z,74.58
2018-04-13T03:53:34.730Z,74.52
2018-04-13T03:56:02.318Z,74.45
2018-04-13T03:58:29.954Z,74.15
2018-04-13T04:00:57.564Z,74.75
2018-04-13T04:03:25.235Z,74.60
2018-04-13T04:05:52.850Z,74.48
2018-04-13T04:08:21.399Z,74.38
2018-04-13T04:10:49.039Z,74.01
2018-04-13T04:13:16.709Z,73.71
2018-04-13T04:15:44.300Z,73.64
2018-04-13T04:18:11.908Z,73.87
2018-04-13T04:20:51.347Z,73.60
2018-04-13T04:23:30.509Z,75.10
2018-04-13T04:26:09.779Z,74.55
2018-04-13T04:28:37.375Z,74.58
2018-04-13T04:31:05.656Z,74.05
2018-04-13T04:33:33.487Z,73.24
2018-04-13T04:36:01.161Z,72.92
2018-04-13T04:38:28.835Z,73.32
2018-04-13T04:40:56.497Z,74.05
2018-04-13T04:43:24.312Z,73.79
2018-04-13T04:45:51.948Z,73.08
2018-04-13T04:48:19.603Z,73.47
2018-04-13T04:50:47.251Z,73.37
2018-04-13T04:53:14.861Z,73.36
2018-04-13T04:55:42.549Z,73.79
2018-04-13T04:58:10.225Z,74.10
2018-04-13T05:00:37.819Z,73.45
2018-04-13T05:03:05.529Z,72.61
2018-04-13T05:05:33.248Z,72.68
2018-04-13T05:08:00.953Z,73.49
2018-04-13T05:10:28.606Z,73.38
2018-04-13T05:12:56.261Z,71.67
2018-04-13T05:15:23.896Z,68.81
2018-04-13T05:17:51.536Z,61.70
2018-04-13T05:20:19.315Z,60.44
2018-04-13T05:22:46.910Z,64.05
2018-04-13T05:25:14.581Z,64.69
2018-04-13T05:27:42.236Z,67.21
2018-04-13T05:30:09.904Z,67.66
2018-04-13T05:32:37.504Z,68.16
2018-04-13T05:35:05.129Z,67.30
2018-04-13T05:37:32.778Z,67.03
2018-04-13T05:40:00.400Z,66.94
2018-04-13T05:42:28.056Z,66.70
2018-04-13T05:44:55.663Z,65.74
2018-04-13T05:47:23.279Z,65.68
2018-04-13T05:49:50.956Z,64.63
2018-04-13T05:52:18.564Z,63.90
2018-04-13T05:54:46.221Z,63.90
2018-04-13T05:57:13.846Z,63.51
2018-04-13T05:59:41.481Z,63.32
2018-04-13T06:02:09.137Z,61.70
2018-04-13T06:04:36.792Z,62.31
2018-04-13T06:07:04.516Z,62.38
2018-04-13T06:09:32.130Z,61.66
2018-04-13T06:11:59.828Z,59.85
2018-04-13T06:14:27.581Z,60.67
2018-04-13T06:16:55.189Z,58.41
2018-04-13T06:19:22.887Z,59.37
2018-04-13T06:21:50.511Z,58.74
2018-04-13T06:24:18.181Z,58.52
2018-04-13T06:26:45.835Z,58.87
2018-04-13T06:29:13.507Z,59.34
2018-04-13T06:31:41.177Z,58.84
2018-04-13T06:34:08.861Z,57.31
2018-04-13T06:36:36.495Z,54.80
2018-04-13T06:39:04.224Z,55.92
2018-04-13T06:41:31.817Z,55.24
2018-04-13T06:43:59.470Z,54.53
2018-04-13T06:46:27.079Z,54.45
2018-04-13T06:48:54.793Z,55.04
2018-04-13T06:51:22.362Z,54.91
2018-04-13T06:53:50.061Z,52.94
2018-04-13T06:56:17.662Z,51.62
2018-04-13T06:58:45.330Z,51.33
2018-04-13T07:01:13.014Z,48.62
2018-04-13T07:03:40.684Z,49.67
2018-04-13T07:06:08.259Z,48.78
2018-04-13T07:08:35.904Z,47.54
2018-04-13T07:11:03.623Z,48.00
2018-04-13T07:13:31.290Z,48.04
2018-04-13T07:15:58.947Z,50.02
2018-04-13T07:18:26.564Z,51.23
2018-04-13T07:20:54.277Z,48.92
2018-04-13T07:23:21.928Z,47.92
2018-04-13T07:25:49.558Z,45.90
2018-04-13T07:28:17.242Z,46.20
2018-04-13T07:30:44.871Z,46.01
2018-04-13T07:33:13.241Z,45.36
2018-04-13T07:35:40.154Z,44.50
2018-04-13T07:38:07.867Z,42.94
2018-04-13T07:40:35.513Z,42.16
2018-04-13T07:43:03.113Z,42.26
2018-04-13T07:45:30.781Z,41.81
2018-04-13T07:47:58.421Z,39.25
2018-04-13T07:50:26.056Z,40.13
2018-04-13T07:52:53.707Z,42.12
2018-04-13T07:55:21.295Z,41.09
2018-04-13T07:57:49.748Z,38.89
2018-04-13T08:00:17.965Z,39.53
2018-04-13T08:02:46.346Z,38.65
2018-04-13T08:05:13.954Z,38.81
2018-04-13T08:07:41.627Z,39.60
2018-04-13T08:10:09.249Z,38.60
2018-04-13T08:12:37.342Z,38.02
2018-04-13T08:15:04.739Z,38.83
2018-04-13T08:17:32.370Z,39.17
2018-04-13T08:19:59.999Z,38.09
2018-04-13T08:22:27.603Z,39.83
2018-04-13T08:24:55.231Z,39.91
2018-04-13T08:27:22.858Z,37.84
2018-04-13T08:29:50.533Z,38.95
2018-04-13T08:32:18.309Z,38.13
2018-04-13T08:34:45.947Z,37.33
2018-04-13T08:37:13.590Z,38.26
2018-04-13T08:39:41.226Z,37.84
2018-04-13T08:42:08.951Z,36.32
2018-04-13T08:44:36.523Z,37.17
2018-04-13T08:47:04.234Z,36.68
2018-04-13T08:49:31.858Z,36.76
2018-04-13T08:51:59.513Z,35.90
2018-04-13T08:54:27.157Z,37.49
2018-04-13T08:56:54.785Z,35.84
2018-04-13T08:59:22.415Z,35.75
2018-04-13T09:01:50.004Z,36.41
2018-04-13T09:04:17.646Z,35.06
2018-04-13T09:06:45.299Z,35.17
2018-04-13T09:09:12.892Z,35.72
2018-04-13T09:11:40.551Z,37.06
2018-04-13T09:14:08.172Z,36.92
2018-04-13T09:16:35.819Z,35.15
2018-04-13T09:19:03.450Z,34.62
2018-04-13T09:21:31.083Z,34.68
2018-04-13T09:23:58.795Z,32.19
2018-04-13T09:26:26.462Z,32.48
2018-04-13T09:28:54.185Z,32.90
2018-04-13T09:31:21.829Z,31.80
2018-04-13T09:33:49.479Z,32.11
2018-04-13T09:36:17.082Z,32.55
2018-04-13T09:38:44.706Z,32.29
2018-04-13T09:41:12.421Z,30.83
2018-04-13T09:43:40.053Z,30.84
2018-04-13T09:46:08.346Z,31.45
2018-04-13T09:48:36.043Z,30.31
2018-04-13T09:51:03.835Z,29.81
2018-04-13T09:53:31.486Z,29.55
2018-04-13T09:55:59.359Z,29.38
2018-04-13T09:58:26.974Z,28.90
2018-04-13T10:01:00.549Z,29.76
2018-04-13T10:03:28.341Z,28.29
2018-04-13T10:05:57.182Z,30.74
2018-04-13T10:08:24.950Z,28.62
2018-04-13T10:10:52.608Z,29.20
2018-04-13T10:13:20.300Z,27.67
2018-04-13T10:15:48.006Z,27.76
2018-04-13T10:18:15.636Z,26.75
2018-04-13T10:20:43.312Z,27.24
2018-04-13T10:23:10.940Z,29.12
2018-04-13T10:25:38.597Z,28.84
2018-04-13T10:28:06.261Z,28.96
2018-04-13T10:30:33.861Z,28.87
2018-04-13T10:33:01.529Z,29.23
2018-04-13T10:35:29.194Z,29.13
2018-04-13T10:37:56.849Z,28.17
2018-04-13T10:40:24.484Z,27.34
2018-04-13T10:42:52.126Z,27.72
2018-04-13T10:45:19.745Z,28.03
2018-04-13T10:47:47.397Z,28.54
2018-04-13T10:50:15.008Z,27.56
2018-04-13T10:52:42.674Z,27.57
2018-04-13T10:55:10.257Z,27.77
2018-04-13T10:57:38.042Z,27.17
2018-04-13T11:00:05.671Z,28.57
2018-04-13T11:02:33.283Z,26.50
2018-04-13T11:05:00.992Z,26.61
2018-04-13T11:07:28.639Z,27.45
2018-04-13T11:09:56.273Z,26.06
2018-04-13T11:12:23.977Z,25.22
2018-04-13T11:14:51.598Z,27.26
2018-04-13T11:17:19.238Z,25.28
2018-04-13T11:19:47.010Z,27.30
2018-04-13T11:22:14.669Z,25.48
2018-04-13T11:24:42.320Z,26.71
2018-04-13T11:27:09.931Z,27.61
2018-04-13T11:29:37.631Z,28.52
2018-04-13T11:32:06.390Z,27.32
2018-04-13T11:34:34.103Z,27.31
2018-04-13T11:37:01.796Z,28.16
2018-04-13T11:39:29.508Z,28.12
2018-04-13T11:41:57.116Z,27.38
2018-04-13T11:44:24.829Z,28.51
2018-04-13T11:46:52.534Z,27.69
2018-04-13T11:49:20.242Z,28.63
2018-04-13T11:51:47.949Z,28.46
2018-04-13T11:54:15.607Z,27.54
2018-04-13T11:56:43.276Z,27.75
2018-04-13T11:59:10.968Z,28.75
2018-04-13T12:01:38.709Z,27.90
2018-04-13T12:04:06.399Z,29.02
2018-04-13T12:06:34.076Z,28.14
2018-04-13T12:09:02.437Z,29.46
2018-04-13T12:11:30.051Z,29.25
2018-04-13T12:13:57.769Z,29.12
2018-04-13T12:16:25.548Z,28.88
2018-04-13T12:18:53.257Z,26.87
2018-04-13T12:21:20.895Z,27.54
2018-04-13T12:23:48.587Z,28.72
2018-04-13T12:26:16.240Z,27.66
2018-04-13T12:28:43.947Z,27.18
2018-04-13T12:31:11.611Z,27.30
2018-04-13T12:33:39.357Z,27.10
2018-04-13T12:36:07.202Z,27.02
2018-04-13T12:38:35.179Z,26.96
2018-04-13T12:41:02.833Z,27.67
2018-04-13T12:43:30.540Z,27.51
2018-04-13T12:45:58.244Z,26.75
2018-04-13T12:48:25.966Z,27.45
2018-04-13T12:50:53.679Z,27.34
2018-04-13T12:53:21.432Z,26.73
2018-04-13T12:55:49.170Z,25.96
2018-04-13T12:58:16.768Z,26.48
2018-04-13T13:00:44.411Z,26.76
2018-04-13T13:03:12.019Z,27.40
2018-04-13T13:05:39.735Z,27.14
2018-04-13T13:08:07.564Z,26.23
2018-04-13T13:10:35.207Z,25.98
2018-04-13T13:13:02.935Z,26.97
2018-04-13T13:15:30.556Z,25.66
2018-04-13T13:17:58.235Z,25.92
2018-04-13T13:20:25.949Z,25.46
2018-04-13T13:22:53.637Z,26.18
2018-04-13T13:25:21.375Z,25.32
2018-04-13T13:27:49.011Z,24.84
2018-04-13T13:30:17.860Z,25.88
2018-04-13T13:32:45.573Z,25.27
2018-04-13T13:35:13.596Z,25.34
2018-04-13T13:37:41.269Z,26.07
2018-04-13T13:40:08.905Z,25.64
2018-04-13T13:42:36.697Z,26.17
2018-04-13T13:45:04.338Z,25.84
2018-04-13T13:47:32.014Z,24.43
2018-04-13T13:49:59.623Z,25.58
2018-04-13T13:52:27.283Z,25.93
2018-04-13T13:54:54.986Z,25.44
2018-04-13T13:57:22.635Z,26.36
2018-04-13T13:59:51.488Z,26.87
2018-04-13T14:02:19.122Z,25.57
2018-04-13T14:04:46.790Z,26.29
2018-04-13T14:07:15.123Z,25.61
2018-04-13T14:09:42.771Z,26.00
2018-04-13T14:12:10.436Z,26.16
2018-04-13T14:14:38.039Z,26.44
2018-04-13T14:17:05.694Z,26.80
2018-04-13T14:19:33.357Z,27.28
2018-04-13T14:22:01.486Z,25.57
2018-04-13T14:24:29.132Z,26.31
2018-04-13T14:26:56.819Z,27.52
2018-04-13T14:29:24.690Z,26.38
2018-04-13T14:31:52.705Z,26.49
2018-04-13T14:34:20.394Z,26.13
2018-04-13T14:36:48.039Z,26.08
2018-04-13T14:39:15.722Z,26.82
2018-04-13T14:41:44.054Z,26.67
2018-04-13T14:44:11.705Z,26.42
2018-04-13T14:46:39.383Z,25.99
2018-04-13T14:49:07.001Z,26.39
2018-04-13T14:51:34.637Z,27.08
2018-04-13T14:54:02.290Z,26.45
2018-04-13T14:56:29.902Z,26.76
2018-04-13T14:58:57.567Z,26.27
2018-04-13T15:01:25.499Z,26.34
2018-04-13T15:03:53.132Z,27.15
2018-04-13T15:06:20.728Z,27.31
2018-04-13T15:08:48.397Z,26.80
2018-04-13T15:11:16.943Z,27.56
2018-04-13T15:13:44.599Z,27.74
2018-04-13T15:16:12.564Z,27.53
2018-04-13T15:18:40.212Z,27.93
2018-04-13T15:21:08.368Z,27.37
2018-04-13T15:23:36.030Z,26.90
2018-04-13T15:26:03.711Z,27.35
2018-04-13T15:28:31.382Z,27.49
2018-04-13T15:30:59.092Z,27.43
2018-04-13T15:33:26.688Z,27.04
2018-04-13T15:35:54.316Z,27.93
2018-04-13T15:38:21.975Z,27.87
2018-04-13T15:40:49.619Z,28.10
2018-04-13T15:43:17.235Z,27.74
2018-04-13T15:45:44.905Z,28.55
2018-04-13T15:48:12.543Z,28.26
2018-04-13T15:50:40.196Z,27.76
2018-04-13T15:53:07.895Z,28.14
2018-04-13T15:55:35.499Z,28.65
2018-04-13T15:58:03.140Z,29.06
2018-04-13T16:00:30.774Z,28.30
2018-04-13T16:02:58.495Z,29.03
2018-04-13T16:05:26.306Z,28.61
2018-04-13T16:07:53.968Z,29.23
2018-04-13T16:10:21.680Z,29.61
2018-04-13T16:12:49.480Z,29.24
2018-04-13T16:15:17.097Z,29.41
2018-04-13T16:17:44.779Z,29.52
2018-04-13T16:20:12.656Z,28.94
2018-04-13T16:22:41.511Z,30.31
2018-04-13T16:25:09.220Z,31.84
2018-04-13T16:27:37.104Z,35.01
2018-04-13T16:30:05.000Z,34.67
2018-04-13T16:32:32.632Z,35.27
2018-04-13T16:35:01.491Z,35.37
2018-04-13T16:37:29.138Z,36.85
2018-04-13T16:39:56.795Z,36.08
2018-04-13T16:42:24.399Z,36.89
2018-04-13T16:44:53.062Z,37.30
2018-04-13T16:47:21.807Z,37.12
2018-04-13T16:49:49.672Z,38.10
2018-04-13T16:52:17.334Z,38.15
2018-04-13T16:54:45.026Z,38.37
2018-04-13T16:57:12.685Z,40.67
2018-04-13T16:59:40.330Z,40.51
2018-04-13T17:02:08.033Z,39.76
2018-04-13T17:04:35.662Z,39.49
2018-04-13T17:07:03.314Z,39.51
2018-04-13T17:09:31.075Z,39.82
2018-04-13T17:11:58.806Z,39.38
2018-04-13T17:14:26.806Z,40.69
2018-04-13T17:16:55.289Z,41.31
2018-04-13T17:19:23.197Z,40.81
2018-04-13T17:21:50.919Z,41.49
2018-04-13T17:24:18.670Z,43.49
2018-04-13T17:26:46.571Z,43.19
2018-04-13T17:29:14.416Z,43.54
2018-04-13T17:31:43.104Z,42.56
2018-04-13T17:34:11.022Z,43.82
2018-04-13T17:36:38.735Z,43.62
2018-04-13T17:39:06.653Z,43.07
2018-04-13T17:41:34.929Z,44.09
2018-04-13T17:44:02.792Z,43.10
2018-04-13T17:46:30.512Z,43.29
2018-04-13T17:48:58.182Z,42.80
2018-04-13T17:51:26.587Z,43.13
2018-04-13T17:53:54.505Z,43.07
2018-04-13T17:56:22.405Z,44.44
2018-04-13T17:58:50.240Z,45.61
2018-04-13T18:01:18.110Z,46.03
2018-04-13T18:03:45.990Z,48.01
2018-04-13T18:06:13.993Z,46.98
2018-04-13T18:08:42.033Z,45.93
2018-04-13T18:11:10.107Z,46.48
2018-04-13T18:13:37.969Z,46.64
2018-04-13T18:16:05.759Z,47.72
2018-04-13T18:18:34.017Z,47.25
2018-04-13T18:21:02.530Z,47.54
2018-04-13T18:23:30.363Z,47.05
2018-04-13T18:25:58.124Z,48.36
2018-04-13T18:28:25.897Z,47.28
2018-04-13T18:30:54.361Z,47.22
2018-04-13T18:33:22.142Z,47.55
2018-04-13T18:35:49.940Z,47.12
2018-04-13T18:38:17.618Z,48.37
2018-04-13T18:40:45.459Z,49.17
2018-04-13T18:43:13.077Z,50.67
2018-04-13T18:45:41.102Z,49.40
2018-04-13T18:48:09.189Z,50.08
2018-04-13T18:50:37.405Z,51.35
2018-04-13T18:53:05.450Z,50.82
2018-04-13T18:55:33.075Z,50.99
2018-04-13T18:58:00.804Z,50.70
2018-04-13T19:00:28.483Z,51.51
2018-04-13T19:02:56.156Z,51.48
2018-04-13T19:05:23.892Z,50.90
2018-04-13T19:07:51.660Z,51.08
2018-04-13T19:10:19.359Z,51.52
2018-04-13T19:12:47.107Z,52.36
2018-04-13T19:15:16.046Z,52.62
2018-04-13T19:17:43.725Z,52.90
2018-04-13T19:20:11.381Z,52.46
2018-04-13T19:22:39.066Z,52.97
2018-04-13T19:25:06.710Z,51.80
2018-04-13T19:27:34.408Z,50.83
2018-04-13T19:30:02.000Z,50.94
2018-04-13T19:32:29.653Z,51.81
2018-04-13T19:34:57.362Z,54.16
2018-04-13T19:37:25.976Z,53.85
2018-04-13T19:39:53.713Z,54.96
2018-04-13T19:42:21.360Z,54.46
2018-04-13T19:44:49.018Z,54.29
2018-04-13T19:47:16.663Z,52.20
2018-04-13T19:49:44.370Z,52.62
2018-04-13T19:52:12.045Z,53.48
2018-04-13T19:54:39.725Z,53.14
2018-04-13T19:57:08.225Z,53.75
2018-04-13T19:59:35.896Z,55.73
2018-04-13T20:02:04.053Z,56.78
2018-04-13T20:04:32.771Z,56.78
2018-04-13T20:07:00.441Z,56.07
2018-04-13T20:09:28.080Z,56.25
2018-04-13T20:11:58.450Z,56.48
2018-04-13T20:14:26.643Z,56.36
2018-04-13T20:16:54.307Z,57.36
2018-04-13T20:19:21.967Z,57.26
2018-04-13T20:21:49.625Z,57.18
2018-04-13T20:24:17.277Z,57.04
2018-04-13T20:26:45.025Z,56.41
2018-04-13T20:29:12.715Z,55.71
2018-04-13T20:31:40.461Z,57.02
2018-04-13T20:34:08.163Z,57.29
2018-04-13T20:36:36.468Z,58.46
2018-04-13T20:39:04.261Z,59.33
2018-04-13T20:41:31.878Z,58.72
2018-04-13T20:43:59.552Z,58.79
2018-04-13T20:46:27.187Z,59.32
2018-04-13T20:48:54.886Z,59.62
2018-04-13T20:51:22.703Z,59.61
2018-04-13T20:53:50.357Z,58.61
2018-04-13T20:56:18.010Z,59.02
2018-04-13T20:58:46.317Z,60.64
2018-04-13T21:01:13.970Z,60.83
2018-04-13T21:03:41.644Z,60.27
2018-04-13T21:06:09.471Z,60.78
2018-04-13T21:08:37.354Z,60.40
2018-04-13T21:11:04.996Z,61.64
2018-04-13T21:13:32.618Z,62.48
2018-04-13T21:16:00.235Z,62.44
2018-04-13T21:18:27.848Z,62.37
2018-04-13T21:20:55.508Z,61.26
2018-04-13T21:23:23.171Z,61.61
2018-04-13T21:25:50.824Z,62.53
2018-04-13T21:28:18.573Z,61.61
2018-04-13T21:30:46.295Z,61.95
2018-04-13T21:33:13.909Z,63.24
2018-04-13T21:35:42.330Z,64.41
2018-04-13T21:38:09.939Z,65.05
2018-04-13T21:40:37.638Z,63.37
2018-04-13T21:43:05.242Z,63.38
2018-04-13T21:45:32.963Z,63.74
2018-04-13T21:48:00.663Z,63.49
2018-04-13T21:50:28.296Z,62.96
2018-04-13T21:52:55.964Z,63.64
2018-04-13T21:55:23.604Z,63.32
2018-04-13T21:57:51.264Z,64.74
2018-04-13T22:00:18.937Z,64.47
2018-04-13T22:02:46.612Z,63.56
2018-04-13T22:05:14.251Z,63.07
2018-04-13T22:07:41.884Z,63.39
2018-04-13T22:10:09.556Z,63.84
2018-04-13T22:12:49.092Z,64.28
2018-04-13T22:15:17.652Z,64.44
2018-04-13T22:17:45.363Z,65.07
2018-04-13T22:20:13.020Z,66.66
2018-04-13T22:22:40.642Z,65.96
2018-04-13T22:25:08.246Z,66.06
2018-04-13T22:27:35.892Z,65.39
2018-04-13T22:30:03.575Z,65.63
2018-04-13T22:32:31.186Z,66.46
2018-04-13T22:34:58.901Z,67.99
2018-04-13T22:37:26.604Z,68.07
2018-04-13T22:39:54.325Z,68.30
2018-04-13T22:42:21.993Z,68.29
2018-04-13T22:44:49.614Z,66.33
2018-04-13T22:47:17.267Z,67.21
2018-04-13T22:49:44.919Z,67.11
2018-04-13T22:52:12.611Z,66.45
2018-04-13T22:54:40.235Z,66.81
2018-04-13T22:57:07.888Z,65.92
2018-04-13T22:59:35.549Z,66.84
2018-04-13T23:02:03.157Z,67.39
2018-04-13T23:04:30.861Z,67.79
2018-04-13T23:06:58.502Z,67.97
2018-04-13T23:09:26.181Z,67.73
2018-04-13T23:11:53.895Z,67.94
2018-04-13T23:14:22.064Z,67.98
2018-04-13T23:16:49.710Z,68.76
2018-04-13T23:19:17.300Z,68.79
2018-04-13T23:21:45.600Z,68.24
2018-04-13T23:24:13.272Z,67.48
2018-04-13T23:26:40.924Z,68.23
2018-04-13T23:29:08.583Z,67.81
2018-04-13T23:31:36.253Z,69.07
2018-04-13T23:34:04.876Z,69.80
2018-04-13T23:36:32.666Z,70.73
2018-04-13T23:39:00.341Z,68.84
2018-04-13T23:41:27.981Z,69.82
2018-04-13T23:43:55.662Z,69.62
2018-04-13T23:46:24.261Z,68.35
2018-04-13T23:48:51.907Z,68.68
2018-04-13T23:51:19.603Z,68.65
2018-04-13T23:53:47.907Z,68.83
2018-04-13T23:56:15.750Z,69.92
2018-04-13T23:58:44.541Z,70.56
